sensor_id;sensor_type;location;lat;lon;timestamp;temperature;humidity
30336;DHT22;17142;47.990;7.846;2022-10-16T00:01:24;14.90;99.90
30336;DHT22;17142;47.990;7.846;2022-10-16T00:03:50;15.00;99.90
30336;DHT22;17142;47.990;7.846;2022-10-16T00:06:20;15.00;99.90
30336;DHT22;17142;47.990;7.846;2022-10-16T00:08:49;15.00;99.90
30336;DHT22;17142;47.990;7.846;2022-10-16T00:11:29;15.00;99.90
30336;DHT22;17142;47.990;7.846;2022-10-16T00:13:59;15.10;99.90
30336;DHT22;17142;47.990;7.846;2022-10-16T00:16:26;15.10;99.90
30336;DHT22;17142;47.990;7.846;2022-10-16T00:18:52;15.10;99.90
30336;DHT22;17142;47.990;7.846;2022-10-16T00:21:20;15.10;99.90
30336;DHT22;17142;47.990;7.846;2022-10-16T00:23:49;15.10;99.90
30336;DHT22;17142;47.990;7.846;2022-10-16T00:26:18;15.10;99.90
30336;DHT22;17142;47.990;7.846;2022-10-16T00:28:46;15.10;99.90
30336;DHT22;17142;47.990;7.846;2022-10-16T00:31:16;15.10;99.90
30336;DHT22;17142;47.990;7.846;2022-10-16T00:33:42;15.00;99.90
30336;DHT22;17142;47.990;7.846;2022-10-16T00:36:12;15.00;99.90
30336;DHT22;17142;47.990;7.846;2022-10-16T00:38:40;15.10;99.90
30336;DHT22;17142;47.990;7.846;2022-10-16T00:41:09;15.00;99.90
30336;DHT22;17142;47.990;7.846;2022-10-16T00:51:23;15.00;99.90
30336;DHT22;17142;47.990;7.846;2022-10-16T00:53:50;15.10;99.90
30336;DHT22;17142;47.990;7.846;2022-10-16T00:56:16;15.10;99.90
30336;DHT22;17142;47.990;7.846;2022-10-16T00:58:41;15.00;99.90
30336;DHT22;17142;47.990;7.846;2022-10-16T01:01:09;15.00;99.90
30336;DHT22;17142;47.990;7.846;2022-10-16T01:03:38;15.00;99.90
30336;DHT22;17142;47.990;7.846;2022-10-16T01:06:19;15.00;99.90
30336;DHT22;17142;47.990;7.846;2022-10-16T01:09:14;15.00;99.90
30336;DHT22;17142;47.990;7.846;2022-10-16T01:11:48;15.00;99.90
30336;DHT22;17142;47.990;7.846;2022-10-16T01:14:22;15.00;99.90
30336;DHT22;17142;47.990;7.846;2022-10-16T01:17:06;14.90;99.90
30336;DHT22;17142;47.990;7.846;2022-10-16T01:22:38;14.80;99.90
30336;DHT22;17142;47.990;7.846;2022-10-16T01:25:12;14.80;99.90
30336;DHT22;17142;47.990;7.846;2022-10-16T01:27:42;14.80;99.90
30336;DHT22;17142;47.990;7.846;2022-10-16T01:30:15;14.80;99.90
30336;DHT22;17142;47.990;7.846;2022-10-16T01:32:49;14.90;99.90
30336;DHT22;17142;47.990;7.846;2022-10-16T01:35:36;14.80;99.90
30336;DHT22;17142;47.990;7.846;2022-10-16T01:38:10;14.80;99.90
30336;DHT22;17142;47.990;7.846;2022-10-16T01:40:40;14.70;99.90
30336;DHT22;17142;47.990;7.846;2022-10-16T01:43:25;14.80;99.90
30336;DHT22;17142;47.990;7.846;2022-10-16T01:45:54;14.80;99.90
30336;DHT22;17142;47.990;7.846;2022-10-16T01:48:21;14.80;99.90
30336;DHT22;17142;47.990;7.846;2022-10-16T01:51:03;14.80;99.90
30336;DHT22;17142;47.990;7.846;2022-10-16T01:53:31;14.90;99.90
30336;DHT22;17142;47.990;7.846;2022-10-16T01:55:58;14.90;99.90
30336;DHT22;17142;47.990;7.846;2022-10-16T01:58:25;14.80;99.90
30336;DHT22;17142;47.990;7.846;2022-10-16T02:00:53;14.70;99.90
30336;DHT22;17142;47.990;7.846;2022-10-16T02:03:20;14.70;99.90
30336;DHT22;17142;47.990;7.846;2022-10-16T02:05:55;14.80;99.90
30336;DHT22;17142;47.990;7.846;2022-10-16T02:08:24;14.80;99.90
30336;DHT22;17142;47.990;7.846;2022-10-16T02:10:57;14.80;99.90
30336;DHT22;17142;47.990;7.846;2022-10-16T02:15:58;14.90;99.90
30336;DHT22;17142;47.990;7.846;2022-10-16T02:18:23;14.90;99.90
30336;DHT22;17142;47.990;7.846;2022-10-16T02:26:40;14.70;99.90
30336;DHT22;17142;47.990;7.846;2022-10-16T02:29:10;14.80;99.90
30336;DHT22;17142;47.990;7.846;2022-10-16T02:31:41;14.80;99.90
30336;DHT22;17142;47.990;7.846;2022-10-16T02:34:08;14.70;99.90
30336;DHT22;17142;47.990;7.846;2022-10-16T02:36:37;14.80;99.90
30336;DHT22;17142;47.990;7.846;2022-10-16T02:39:05;14.70;99.90
30336;DHT22;17142;47.990;7.846;2022-10-16T02:41:32;14.70;99.90
30336;DHT22;17142;47.990;7.846;2022-10-16T02:43:58;14.60;99.90
30336;DHT22;17142;47.990;7.846;2022-10-16T02:46:23;14.60;99.90
30336;DHT22;17142;47.990;7.846;2022-10-16T02:48:49;14.60;99.90
30336;DHT22;17142;47.990;7.846;2022-10-16T02:51:14;14.70;99.90
30336;DHT22;17142;47.990;7.846;2022-10-16T02:53:40;14.70;99.90
30336;DHT22;17142;47.990;7.846;2022-10-16T02:56:10;14.70;99.90
30336;DHT22;17142;47.990;7.846;2022-10-16T02:58:36;14.80;99.90
30336;DHT22;17142;47.990;7.846;2022-10-16T03:01:01;14.90;99.90
30336;DHT22;17142;47.990;7.846;2022-10-16T03:03:29;14.90;99.90
30336;DHT22;17142;47.990;7.846;2022-10-16T03:05:55;14.80;99.90
30336;DHT22;17142;47.990;7.846;2022-10-16T03:08:20;14.80;99.90
30336;DHT22;17142;47.990;7.846;2022-10-16T03:10:49;14.80;99.90
30336;DHT22;17142;47.990;7.846;2022-10-16T03:13:15;14.80;99.90
30336;DHT22;17142;47.990;7.846;2022-10-16T03:15:40;14.80;99.90
30336;DHT22;17142;47.990;7.846;2022-10-16T03:18:06;14.80;99.90
30336;DHT22;17142;47.990;7.846;2022-10-16T03:20:32;14.80;99.90
30336;DHT22;17142;47.990;7.846;2022-10-16T03:22:59;14.80;99.90
30336;DHT22;17142;47.990;7.846;2022-10-16T03:25:28;14.90;99.90
30336;DHT22;17142;47.990;7.846;2022-10-16T03:27:53;14.90;99.90
30336;DHT22;17142;47.990;7.846;2022-10-16T03:30:19;14.90;99.90
30336;DHT22;17142;47.990;7.846;2022-10-16T03:32:44;14.90;99.90
30336;DHT22;17142;47.990;7.846;2022-10-16T03:35:10;14.80;99.90
30336;DHT22;17142;47.990;7.846;2022-10-16T03:37:36;14.80;99.90
30336;DHT22;17142;47.990;7.846;2022-10-16T03:40:03;14.80;99.90
30336;DHT22;17142;47.990;7.846;2022-10-16T03:42:28;14.90;99.90
30336;DHT22;17142;47.990;7.846;2022-10-16T03:44:54;14.80;99.90
30336;DHT22;17142;47.990;7.846;2022-10-16T03:47:22;14.70;99.90
30336;DHT22;17142;47.990;7.846;2022-10-16T03:49:50;14.80;99.90
30336;DHT22;17142;47.990;7.846;2022-10-16T03:52:16;14.90;99.90
30336;DHT22;17142;47.990;7.846;2022-10-16T03:54:41;15.00;99.90
30336;DHT22;17142;47.990;7.846;2022-10-16T03:57:07;15.00;99.90
30336;DHT22;17142;47.990;7.846;2022-10-16T03:59:33;15.00;99.90
30336;DHT22;17142;47.990;7.846;2022-10-16T04:01:58;15.00;99.90
30336;DHT22;17142;47.990;7.846;2022-10-16T04:04:24;15.00;99.90
30336;DHT22;17142;47.990;7.846;2022-10-16T04:06:50;15.00;99.90
30336;DHT22;17142;47.990;7.846;2022-10-16T04:09:19;14.90;99.90
30336;DHT22;17142;47.990;7.846;2022-10-16T04:11:44;14.90;99.90
30336;DHT22;17142;47.990;7.846;2022-10-16T04:14:12;14.90;99.90
30336;DHT22;17142;47.990;7.846;2022-10-16T04:16:38;14.90;99.90
30336;DHT22;17142;47.990;7.846;2022-10-16T04:19:06;14.90;99.90
30336;DHT22;17142;47.990;7.846;2022-10-16T04:21:34;15.00;99.90
30336;DHT22;17142;47.990;7.846;2022-10-16T04:23:59;15.00;99.90
30336;DHT22;17142;47.990;7.846;2022-10-16T04:26:27;15.10;99.90
30336;DHT22;17142;47.990;7.846;2022-10-16T04:28:53;15.00;99.90
30336;DHT22;17142;47.990;7.846;2022-10-16T04:31:19;15.00;99.90
30336;DHT22;17142;47.990;7.846;2022-10-16T04:33:45;15.00;99.90
30336;DHT22;17142;47.990;7.846;2022-10-16T04:36:10;15.00;99.90
30336;DHT22;17142;47.990;7.846;2022-10-16T04:38:36;15.00;99.90
30336;DHT22;17142;47.990;7.846;2022-10-16T04:41:03;15.20;99.90
30336;DHT22;17142;47.990;7.846;2022-10-16T04:43:29;15.10;99.90
30336;DHT22;17142;47.990;7.846;2022-10-16T04:45:57;15.10;99.90
30336;DHT22;17142;47.990;7.846;2022-10-16T04:48:25;15.00;99.90
30336;DHT22;17142;47.990;7.846;2022-10-16T04:50:53;15.10;99.90
30336;DHT22;17142;47.990;7.846;2022-10-16T04:53:18;15.10;99.90
30336;DHT22;17142;47.990;7.846;2022-10-16T04:55:47;15.10;99.90
30336;DHT22;17142;47.990;7.846;2022-10-16T04:58:14;15.10;99.90
30336;DHT22;17142;47.990;7.846;2022-10-16T05:00:44;15.10;99.90
30336;DHT22;17142;47.990;7.846;2022-10-16T05:03:09;15.10;99.90
30336;DHT22;17142;47.990;7.846;2022-10-16T05:05:36;15.10;99.90
30336;DHT22;17142;47.990;7.846;2022-10-16T05:08:02;15.00;99.90
30336;DHT22;17142;47.990;7.846;2022-10-16T05:10:30;15.00;99.90
30336;DHT22;17142;47.990;7.846;2022-10-16T05:12:58;15.10;99.90
30336;DHT22;17142;47.990;7.846;2022-10-16T05:15:25;15.20;99.90
30336;DHT22;17142;47.990;7.846;2022-10-16T05:17:57;15.20;99.90
30336;DHT22;17142;47.990;7.846;2022-10-16T05:20:23;15.20;99.90
30336;DHT22;17142;47.990;7.846;2022-10-16T05:22:49;15.10;99.90
30336;DHT22;17142;47.990;7.846;2022-10-16T05:25:15;15.10;99.90
30336;DHT22;17142;47.990;7.846;2022-10-16T05:27:40;15.10;99.90
30336;DHT22;17142;47.990;7.846;2022-10-16T05:30:06;15.10;99.90
30336;DHT22;17142;47.990;7.846;2022-10-16T05:32:35;15.10;99.90
30336;DHT22;17142;47.990;7.846;2022-10-16T05:35:01;15.10;99.90
30336;DHT22;17142;47.990;7.846;2022-10-16T05:37:29;15.10;99.90
30336;DHT22;17142;47.990;7.846;2022-10-16T05:39:55;15.10;99.90
30336;DHT22;17142;47.990;7.846;2022-10-16T05:42:23;15.20;99.90
30336;DHT22;17142;47.990;7.846;2022-10-16T05:44:49;15.20;99.90
30336;DHT22;17142;47.990;7.846;2022-10-16T05:47:14;15.10;99.90
30336;DHT22;17142;47.990;7.846;2022-10-16T05:49:40;15.20;99.90
30336;DHT22;17142;47.990;7.846;2022-10-16T05:52:08;15.20;99.90
30336;DHT22;17142;47.990;7.846;2022-10-16T05:54:34;15.30;99.90
30336;DHT22;17142;47.990;7.846;2022-10-16T05:57:02;15.20;99.90
30336;DHT22;17142;47.990;7.846;2022-10-16T05:59:31;15.20;99.90
30336;DHT22;17142;47.990;7.846;2022-10-16T06:01:57;15.30;99.90
30336;DHT22;17142;47.990;7.846;2022-10-16T06:04:25;15.40;99.90
30336;DHT22;17142;47.990;7.846;2022-10-16T06:06:50;15.40;99.90
30336;DHT22;17142;47.990;7.846;2022-10-16T06:09:18;15.40;99.90
30336;DHT22;17142;47.990;7.846;2022-10-16T06:11:46;15.40;99.90
30336;DHT22;17142;47.990;7.846;2022-10-16T06:14:16;15.40;99.90
30336;DHT22;17142;47.990;7.846;2022-10-16T06:16:42;15.40;99.90
30336;DHT22;17142;47.990;7.846;2022-10-16T06:19:09;15.40;99.90
30336;DHT22;17142;47.990;7.846;2022-10-16T06:21:35;15.40;99.90
30336;DHT22;17142;47.990;7.846;2022-10-16T06:24:03;15.50;99.90
30336;DHT22;17142;47.990;7.846;2022-10-16T06:26:30;15.50;99.90
30336;DHT22;17142;47.990;7.846;2022-10-16T06:29:01;15.50;99.90
30336;DHT22;17142;47.990;7.846;2022-10-16T06:31:27;15.60;99.90
30336;DHT22;17142;47.990;7.846;2022-10-16T06:33:58;15.60;99.90
30336;DHT22;17142;47.990;7.846;2022-10-16T06:36:26;15.60;99.90
30336;DHT22;17142;47.990;7.846;2022-10-16T06:38:55;15.50;99.90
30336;DHT22;17142;47.990;7.846;2022-10-16T06:41:22;15.60;99.90
30336;DHT22;17142;47.990;7.846;2022-10-16T06:43:51;15.60;99.90
30336;DHT22;17142;47.990;7.846;2022-10-16T06:46:21;15.60;99.90
30336;DHT22;17142;47.990;7.846;2022-10-16T06:48:49;15.60;99.90
30336;DHT22;17142;47.990;7.846;2022-10-16T06:51:21;15.60;99.90
30336;DHT22;17142;47.990;7.846;2022-10-16T06:53:52;15.70;99.90
30336;DHT22;17142;47.990;7.846;2022-10-16T06:56:23;15.80;99.90
30336;DHT22;17142;47.990;7.846;2022-10-16T06:58:50;15.70;99.90
30336;DHT22;17142;47.990;7.846;2022-10-16T07:01:18;15.70;99.90
30336;DHT22;17142;47.990;7.846;2022-10-16T07:03:45;15.70;99.90
30336;DHT22;17142;47.990;7.846;2022-10-16T07:06:13;15.70;99.90
30336;DHT22;17142;47.990;7.846;2022-10-16T07:08:42;15.60;99.90
30336;DHT22;17142;47.990;7.846;2022-10-16T07:11:13;15.60;99.90
30336;DHT22;17142;47.990;7.846;2022-10-16T07:13:40;15.70;99.90
30336;DHT22;17142;47.990;7.846;2022-10-16T07:16:19;15.70;99.90
30336;DHT22;17142;47.990;7.846;2022-10-16T07:18:47;15.80;99.90
30336;DHT22;17142;47.990;7.846;2022-10-16T07:21:20;15.80;99.90
30336;DHT22;17142;47.990;7.846;2022-10-16T07:24:00;15.90;99.90
30336;DHT22;17142;47.990;7.846;2022-10-16T07:26:35;15.90;99.90
30336;DHT22;17142;47.990;7.846;2022-10-16T07:29:04;15.90;99.90
30336;DHT22;17142;47.990;7.846;2022-10-16T07:31:29;15.90;99.90
30336;DHT22;17142;47.990;7.846;2022-10-16T07:33:55;15.90;99.90
30336;DHT22;17142;47.990;7.846;2022-10-16T07:36:23;16.10;99.90
30336;DHT22;17142;47.990;7.846;2022-10-16T07:38:48;16.20;99.90
30336;DHT22;17142;47.990;7.846;2022-10-16T07:41:16;16.30;99.90
30336;DHT22;17142;47.990;7.846;2022-10-16T07:43:52;16.40;99.90
30336;DHT22;17142;47.990;7.846;2022-10-16T07:46:20;16.50;99.90
30336;DHT22;17142;47.990;7.846;2022-10-16T07:48:46;16.50;99.90
30336;DHT22;17142;47.990;7.846;2022-10-16T07:51:15;16.60;99.90
30336;DHT22;17142;47.990;7.846;2022-10-16T07:53:41;16.70;99.90
30336;DHT22;17142;47.990;7.846;2022-10-16T07:56:07;16.70;99.90
30336;DHT22;17142;47.990;7.846;2022-10-16T07:58:35;16.70;99.90
30336;DHT22;17142;47.990;7.846;2022-10-16T08:01:11;16.80;99.90
30336;DHT22;17142;47.990;7.846;2022-10-16T08:03:42;16.90;99.90
30336;DHT22;17142;47.990;7.846;2022-10-16T08:06:08;16.90;99.90
30336;DHT22;17142;47.990;7.846;2022-10-16T08:08:33;17.00;99.90
30336;DHT22;17142;47.990;7.846;2022-10-16T08:11:02;17.10;99.90
30336;DHT22;17142;47.990;7.846;2022-10-16T08:13:29;17.20;99.90
30336;DHT22;17142;47.990;7.846;2022-10-16T08:15:58;17.30;99.90
30336;DHT22;17142;47.990;7.846;2022-10-16T08:18:26;17.40;99.90
30336;DHT22;17142;47.990;7.846;2022-10-16T08:20:56;17.50;99.90
30336;DHT22;17142;47.990;7.846;2022-10-16T08:23:23;17.70;99.90
30336;DHT22;17142;47.990;7.846;2022-10-16T08:25:48;17.70;99.90
30336;DHT22;17142;47.990;7.846;2022-10-16T08:28:16;17.80;99.90
30336;DHT22;17142;47.990;7.846;2022-10-16T08:30:42;17.80;99.90
30336;DHT22;17142;47.990;7.846;2022-10-16T08:33:07;17.90;99.90
30336;DHT22;17142;47.990;7.846;2022-10-16T08:35:33;18.00;99.90
30336;DHT22;17142;47.990;7.846;2022-10-16T08:38:04;18.00;99.90
30336;DHT22;17142;47.990;7.846;2022-10-16T08:40:32;18.10;99.90
30336;DHT22;17142;47.990;7.846;2022-10-16T08:48:15;18.20;99.90
30336;DHT22;17142;47.990;7.846;2022-10-16T08:50:42;18.20;99.90
30336;DHT22;17142;47.990;7.846;2022-10-16T08:53:16;18.20;99.90
30336;DHT22;17142;47.990;7.846;2022-10-16T08:55:52;18.20;99.90
30336;DHT22;17142;47.990;7.846;2022-10-16T08:58:31;18.20;99.90
30336;DHT22;17142;47.990;7.846;2022-10-16T09:00:59;18.20;99.90
30336;DHT22;17142;47.990;7.846;2022-10-16T09:11:48;18.50;99.90
30336;DHT22;17142;47.990;7.846;2022-10-16T09:17:00;19.00;99.90
30336;DHT22;17142;47.990;7.846;2022-10-16T09:19:37;19.20;99.90
30336;DHT22;17142;47.990;7.846;2022-10-16T09:22:15;19.40;99.90
30336;DHT22;17142;47.990;7.846;2022-10-16T09:24:41;19.60;99.90
30336;DHT22;17142;47.990;7.846;2022-10-16T09:27:14;19.70;99.90
30336;DHT22;17142;47.990;7.846;2022-10-16T09:29:40;19.90;99.90
30336;DHT22;17142;47.990;7.846;2022-10-16T09:32:15;20.00;99.90
30336;DHT22;17142;47.990;7.846;2022-10-16T09:34:50;20.30;99.90
30336;DHT22;17142;47.990;7.846;2022-10-16T09:37:21;20.60;99.90
30336;DHT22;17142;47.990;7.846;2022-10-16T09:39:54;21.00;99.90
30336;DHT22;17142;47.990;7.846;2022-10-16T09:42:34;21.50;99.90
30336;DHT22;17142;47.990;7.846;2022-10-16T09:45:01;21.90;99.90
30336;DHT22;17142;47.990;7.846;2022-10-16T09:47:28;22.30;99.90
30336;DHT22;17142;47.990;7.846;2022-10-16T09:50:04;22.70;99.90
30336;DHT22;17142;47.990;7.846;2022-10-16T09:52:32;23.10;99.90
30336;DHT22;17142;47.990;7.846;2022-10-16T09:55:00;23.50;99.90
30336;DHT22;17142;47.990;7.846;2022-10-16T09:57:26;23.60;99.90
30336;DHT22;17142;47.990;7.846;2022-10-16T09:59:56;23.80;99.90
30336;DHT22;17142;47.990;7.846;2022-10-16T10:02:31;24.00;99.90
30336;DHT22;17142;47.990;7.846;2022-10-16T10:04:59;24.30;99.90
30336;DHT22;17142;47.990;7.846;2022-10-16T10:07:34;24.50;98.90
30336;DHT22;17142;47.990;7.846;2022-10-16T10:10:03;24.60;97.50
30336;DHT22;17142;47.990;7.846;2022-10-16T10:12:31;24.60;96.20
30336;DHT22;17142;47.990;7.846;2022-10-16T10:15:10;24.60;96.00
30336;DHT22;17142;47.990;7.846;2022-10-16T10:17:55;24.80;94.80
30336;DHT22;17142;47.990;7.846;2022-10-16T10:20:35;25.00;93.80
30336;DHT22;17142;47.990;7.846;2022-10-16T10:23:24;25.20;93.10
30336;DHT22;17142;47.990;7.846;2022-10-16T10:26:20;25.20;91.10
30336;DHT22;17142;47.990;7.846;2022-10-16T10:39:57;25.30;77.50
30336;DHT22;17142;47.990;7.846;2022-10-16T10:42:39;25.50;77.70
30336;DHT22;17142;47.990;7.846;2022-10-16T10:56:23;25.90;73.00
30336;DHT22;17142;47.990;7.846;2022-10-16T11:01:50;25.80;69.80
30336;DHT22;17142;47.990;7.846;2022-10-16T11:05:27;25.60;69.80
30336;DHT22;17142;47.990;7.846;2022-10-16T11:07:34;25.60;69.20
30336;DHT22;17142;47.990;7.846;2022-10-16T11:10:17;25.60;67.80
30336;DHT22;17142;47.990;7.846;2022-10-16T11:12:50;25.60;68.00
30336;DHT22;17142;47.990;7.846;2022-10-16T11:15:31;25.70;68.00
30336;DHT22;17142;47.990;7.846;2022-10-16T11:20:31;25.80;66.30
30336;DHT22;17142;47.990;7.846;2022-10-16T11:23:05;25.80;62.10
30336;DHT22;17142;47.990;7.846;2022-10-16T11:25:35;25.70;62.50
30336;DHT22;17142;47.990;7.846;2022-10-16T11:28:29;25.70;63.70
30336;DHT22;17142;47.990;7.846;2022-10-16T11:30:58;25.70;63.40
30336;DHT22;17142;47.990;7.846;2022-10-16T11:41:55;25.90;63.10
30336;DHT22;17142;47.990;7.846;2022-10-16T11:47:14;25.90;62.50
30336;DHT22;17142;47.990;7.846;2022-10-16T11:49:41;26.00;62.70
30336;DHT22;17142;47.990;7.846;2022-10-16T11:54:56;26.20;62.50
30336;DHT22;17142;47.990;7.846;2022-10-16T11:57:27;26.20;62.10
30336;DHT22;17142;47.990;7.846;2022-10-16T12:00:01;26.10;60.90
30336;DHT22;17142;47.990;7.846;2022-10-16T12:02:41;26.00;61.90
30336;DHT22;17142;47.990;7.846;2022-10-16T12:10:34;26.00;62.90
30336;DHT22;17142;47.990;7.846;2022-10-16T12:18:40;26.00;63.40
30336;DHT22;17142;47.990;7.846;2022-10-16T12:21:06;26.00;64.00
30336;DHT22;17142;47.990;7.846;2022-10-16T12:23:37;25.90;64.90
30336;DHT22;17142;47.990;7.846;2022-10-16T12:26:04;25.90;66.00
30336;DHT22;17142;47.990;7.846;2022-10-16T12:28:35;25.90;65.20
30336;DHT22;17142;47.990;7.846;2022-10-16T12:31:05;25.80;65.20
30336;DHT22;17142;47.990;7.846;2022-10-16T12:33:33;25.80;65.70
30336;DHT22;17142;47.990;7.846;2022-10-16T12:36:03;25.80;65.90
30336;DHT22;17142;47.990;7.846;2022-10-16T12:38:48;25.90;65.00
30336;DHT22;17142;47.990;7.846;2022-10-16T12:41:27;25.90;64.60
30336;DHT22;17142;47.990;7.846;2022-10-16T12:43:58;26.00;64.00
30336;DHT22;17142;47.990;7.846;2022-10-16T12:51:37;25.90;63.00
30336;DHT22;17142;47.990;7.846;2022-10-16T13:08:47;25.20;62.70
30336;DHT22;17142;47.990;7.846;2022-10-16T13:20:02;24.90;64.30
30336;DHT22;17142;47.990;7.846;2022-10-16T13:30:25;24.50;63.70
30336;DHT22;17142;47.990;7.846;2022-10-16T13:33:01;24.40;63.90
30336;DHT22;17142;47.990;7.846;2022-10-16T13:35:33;24.40;63.60
30336;DHT22;17142;47.990;7.846;2022-10-16T13:38:12;24.40;63.70
30336;DHT22;17142;47.990;7.846;2022-10-16T13:43:50;24.30;64.50
30336;DHT22;17142;47.990;7.846;2022-10-16T13:46:21;24.40;63.70
30336;DHT22;17142;47.990;7.846;2022-10-16T13:49:04;24.30;64.00
30336;DHT22;17142;47.990;7.846;2022-10-16T13:51:31;24.20;65.20
30336;DHT22;17142;47.990;7.846;2022-10-16T13:53:58;24.20;65.00
30336;DHT22;17142;47.990;7.846;2022-10-16T13:56:31;24.20;65.70
30336;DHT22;17142;47.990;7.846;2022-10-16T13:59:22;24.20;65.30
30336;DHT22;17142;47.990;7.846;2022-10-16T14:01:48;24.10;65.70
30336;DHT22;17142;47.990;7.846;2022-10-16T14:04:17;24.10;65.50
30336;DHT22;17142;47.990;7.846;2022-10-16T14:06:45;24.20;65.40
30336;DHT22;17142;47.990;7.846;2022-10-16T14:11:48;24.20;64.80
30336;DHT22;17142;47.990;7.846;2022-10-16T14:14:18;24.20;65.00
30336;DHT22;17142;47.990;7.846;2022-10-16T14:16:46;24.20;64.90
30336;DHT22;17142;47.990;7.846;2022-10-16T14:19:22;24.20;64.80
30336;DHT22;17142;47.990;7.846;2022-10-16T14:21:50;24.20;65.00
30336;DHT22;17142;47.990;7.846;2022-10-16T14:26:51;24.20;65.00
30336;DHT22;17142;47.990;7.846;2022-10-16T14:29:20;24.20;64.80
30336;DHT22;17142;47.990;7.846;2022-10-16T14:32:04;24.30;64.90
30336;DHT22;17142;47.990;7.846;2022-10-16T14:34:36;24.40;64.80
30336;DHT22;17142;47.990;7.846;2022-10-16T14:37:24;24.40;64.40
30336;DHT22;17142;47.990;7.846;2022-10-16T14:39:51;24.50;64.40
30336;DHT22;17142;47.990;7.846;2022-10-16T14:42:19;24.50;65.10
30336;DHT22;17142;47.990;7.846;2022-10-16T14:44:46;24.40;65.00
30336;DHT22;17142;47.990;7.846;2022-10-16T14:47:21;24.40;65.50
30336;DHT22;17142;47.990;7.846;2022-10-16T14:49:50;24.30;65.90
30336;DHT22;17142;47.990;7.846;2022-10-16T14:52:20;24.30;66.00
30336;DHT22;17142;47.990;7.846;2022-10-16T14:54:48;24.20;65.90
30336;DHT22;17142;47.990;7.846;2022-10-16T14:57:19;24.20;65.90
30336;DHT22;17142;47.990;7.846;2022-10-16T14:59:48;24.20;65.90
30336;DHT22;17142;47.990;7.846;2022-10-16T15:04:54;24.20;66.20
30336;DHT22;17142;47.990;7.846;2022-10-16T15:07:20;24.10;66.50
30336;DHT22;17142;47.990;7.846;2022-10-16T15:09:45;24.00;66.20
30336;DHT22;17142;47.990;7.846;2022-10-16T15:12:11;24.00;66.60
30336;DHT22;17142;47.990;7.846;2022-10-16T15:14:39;24.00;67.40
30336;DHT22;17142;47.990;7.846;2022-10-16T15:17:05;24.00;67.50
30336;DHT22;17142;47.990;7.846;2022-10-16T15:19:33;24.00;67.80
30336;DHT22;17142;47.990;7.846;2022-10-16T15:21:59;23.90;68.40
30336;DHT22;17142;47.990;7.846;2022-10-16T15:24:27;23.90;69.00
30336;DHT22;17142;47.990;7.846;2022-10-16T15:26:52;23.80;69.20
30336;DHT22;17142;47.990;7.846;2022-10-16T15:29:18;23.90;69.20
30336;DHT22;17142;47.990;7.846;2022-10-16T15:31:44;23.80;69.80
30336;DHT22;17142;47.990;7.846;2022-10-16T15:34:13;23.70;69.60
30336;DHT22;17142;47.990;7.846;2022-10-16T15:36:39;23.60;70.10
30336;DHT22;17142;47.990;7.846;2022-10-16T15:39:06;23.60;70.40
30336;DHT22;17142;47.990;7.846;2022-10-16T15:41:39;23.50;70.50
30336;DHT22;17142;47.990;7.846;2022-10-16T15:44:05;23.40;71.10
30336;DHT22;17142;47.990;7.846;2022-10-16T15:46:33;23.30;71.60
30336;DHT22;17142;47.990;7.846;2022-10-16T15:49:00;23.20;72.20
30336;DHT22;17142;47.990;7.846;2022-10-16T15:51:26;23.00;72.70
30336;DHT22;17142;47.990;7.846;2022-10-16T15:53:58;23.00;74.20
30336;DHT22;17142;47.990;7.846;2022-10-16T15:56:27;22.80;77.80
30336;DHT22;17142;47.990;7.846;2022-10-16T15:58:54;22.60;80.30
30336;DHT22;17142;47.990;7.846;2022-10-16T16:01:20;22.40;82.90
30336;DHT22;17142;47.990;7.846;2022-10-16T16:03:46;22.20;86.20
30336;DHT22;17142;47.990;7.846;2022-10-16T16:06:13;21.90;89.00
30336;DHT22;17142;47.990;7.846;2022-10-16T16:08:41;21.60;90.80
30336;DHT22;17142;47.990;7.846;2022-10-16T16:11:10;21.30;92.10
30336;DHT22;17142;47.990;7.846;2022-10-16T16:13:38;21.10;93.50
30336;DHT22;17142;47.990;7.846;2022-10-16T16:16:09;20.80;95.00
30336;DHT22;17142;47.990;7.846;2022-10-16T16:18:35;20.50;96.50
30336;DHT22;17142;47.990;7.846;2022-10-16T16:21:01;20.30;98.70
30336;DHT22;17142;47.990;7.846;2022-10-16T16:23:26;20.00;99.90
30336;DHT22;17142;47.990;7.846;2022-10-16T16:26:14;19.80;99.90
30336;DHT22;17142;47.990;7.846;2022-10-16T16:28:42;19.60;99.90
30336;DHT22;17142;47.990;7.846;2022-10-16T16:31:10;19.50;99.90
30336;DHT22;17142;47.990;7.846;2022-10-16T16:33:35;19.30;99.90
30336;DHT22;17142;47.990;7.846;2022-10-16T16:36:05;19.10;99.90
30336;DHT22;17142;47.990;7.846;2022-10-16T16:38:32;18.90;99.90
30336;DHT22;17142;47.990;7.846;2022-10-16T16:40:58;18.80;99.90
30336;DHT22;17142;47.990;7.846;2022-10-16T16:43:27;18.70;99.90
30336;DHT22;17142;47.990;7.846;2022-10-16T16:45:53;18.70;99.90
30336;DHT22;17142;47.990;7.846;2022-10-16T16:48:19;18.70;99.90
30336;DHT22;17142;47.990;7.846;2022-10-16T16:50:45;18.70;99.90
30336;DHT22;17142;47.990;7.846;2022-10-16T16:53:13;18.70;99.90
30336;DHT22;17142;47.990;7.846;2022-10-16T16:55:38;18.70;99.90
30336;DHT22;17142;47.990;7.846;2022-10-16T16:58:04;18.80;99.90
30336;DHT22;17142;47.990;7.846;2022-10-16T17:00:30;18.70;99.90
30336;DHT22;17142;47.990;7.846;2022-10-16T17:02:56;18.70;99.90
30336;DHT22;17142;47.990;7.846;2022-10-16T17:05:24;18.70;99.90
30336;DHT22;17142;47.990;7.846;2022-10-16T17:07:53;18.60;99.90
30336;DHT22;17142;47.990;7.846;2022-10-16T17:10:19;18.50;99.90
30336;DHT22;17142;47.990;7.846;2022-10-16T17:12:44;18.50;99.90
30336;DHT22;17142;47.990;7.846;2022-10-16T17:15:10;18.40;99.90
30336;DHT22;17142;47.990;7.846;2022-10-16T17:17:36;18.30;99.90
30336;DHT22;17142;47.990;7.846;2022-10-16T17:20:04;18.30;99.90
30336;DHT22;17142;47.990;7.846;2022-10-16T17:22:32;18.20;99.90
30336;DHT22;17142;47.990;7.846;2022-10-16T17:24:58;18.20;99.90
30336;DHT22;17142;47.990;7.846;2022-10-16T17:27:24;18.10;99.90
30336;DHT22;17142;47.990;7.846;2022-10-16T17:29:52;18.10;99.90
30336;DHT22;17142;47.990;7.846;2022-10-16T17:32:18;18.00;99.90
30336;DHT22;17142;47.990;7.846;2022-10-16T17:34:45;18.00;99.90
30336;DHT22;17142;47.990;7.846;2022-10-16T17:37:11;17.90;99.90
30336;DHT22;17142;47.990;7.846;2022-10-16T17:39:36;17.90;99.90
30336;DHT22;17142;47.990;7.846;2022-10-16T17:42:04;17.80;99.90
30336;DHT22;17142;47.990;7.846;2022-10-16T17:44:30;17.70;99.90
30336;DHT22;17142;47.990;7.846;2022-10-16T17:46:57;17.60;99.90
30336;DHT22;17142;47.990;7.846;2022-10-16T17:49:26;17.50;99.90
30336;DHT22;17142;47.990;7.846;2022-10-16T17:51:53;17.50;99.90
30336;DHT22;17142;47.990;7.846;2022-10-16T17:54:21;17.40;99.90
30336;DHT22;17142;47.990;7.846;2022-10-16T17:56:49;17.40;99.90
30336;DHT22;17142;47.990;7.846;2022-10-16T17:59:15;17.40;99.90